0J4

Florala Municipal Airport

Florala, Alabama, USA
METAR K0J4 181058Z AUTO 03005KT 10SM CLR 15/10 A3028 RMK AO2 SLP249 T01500100
Observed Flight Rules
Oct-18 @ 10:58 UTC (2 hours ago) Visual Flight Rules
Wind Visibility Clouds
30° at 5 knots 10 miles
  • Clear skies
Temperatures Readings
Current 15°C / 59°F
Dewpoint 10°C / 50°F
Humidity 72%
Altimeter 30.28" Hg
Pressure 1024.9 hPa
Elevation 96
METAR K0J4 181058Z AUTO 03005KT 10SM CLR 15/10 A3028 RMK AO2 SLP249 T01500100
Observed Flight Rules
Oct-18 @ 10:58 UTC
(2 hours ago)
VFR
Wind Visibility
30° at 5 knots 10 miles
Clouds
  • Clear skies
Temperature Dewpoint
15°C / 59°F 10°C / 50°F
Humidity Altimeter Pressure
72% 30.28" Hg 1024.9 hPa